createdAt,value
2019-04-03T00:00:04.420Z,4.70
2019-04-03T03:02:44.114Z,4.30
2019-04-03T03:05:12.627Z,4.40
2019-04-03T03:07:41.082Z,4.30
2019-04-03T03:10:09.394Z,4.20
2019-04-03T03:12:38.049Z,4.20
2019-04-03T03:15:11.242Z,4.20
2019-04-03T03:17:38.127Z,4.20
2019-04-03T03:20:07.810Z,4.20
2019-04-03T03:22:36.622Z,4.20
2019-04-03T03:25:06.571Z,4.30
2019-04-03T03:27:35.722Z,4.20
2019-04-03T03:30:30.353Z,4.30
2019-04-03T03:32:37.824Z,4.30
2019-04-03T03:35:13.290Z,4.20
2019-04-03T03:37:37.425Z,4.20
2019-04-03T03:40:06.689Z,4.20
2019-04-03T03:42:35.106Z,4.20
2019-04-03T03:45:03.601Z,4.20
2019-04-03T03:47:35.201Z,4.30
2019-04-03T03:50:02.900Z,4.30
2019-04-03T03:52:31.547Z,4.20
2019-04-03T03:55:01.479Z,4.30
2019-04-03T03:57:29.874Z,4.30
2019-04-03T03:59:58.287Z,4.20
2019-04-03T04:02:26.671Z,4.30
2019-04-03T04:04:55.205Z,4.30
2019-04-03T04:07:23.617Z,4.10
2019-04-03T04:09:52.710Z,4.10
2019-04-03T04:12:21.092Z,4.00
2019-04-03T04:14:49.807Z,3.90
2019-04-03T04:17:18.957Z,4.00
2019-04-03T04:19:47.395Z,4.00
2019-04-03T04:22:17.619Z,3.90
2019-04-03T04:24:45.995Z,4.00
2019-04-03T04:27:14.410Z,3.90
2019-04-03T04:29:43.245Z,3.90
2019-04-03T04:32:13.024Z,4.00
2019-04-03T04:34:41.651Z,4.00
2019-04-03T04:37:10.115Z,3.80
2019-04-03T04:39:38.848Z,3.80
2019-04-03T04:42:07.225Z,3.70
2019-04-03T04:44:35.603Z,3.70
2019-04-03T04:47:03.968Z,3.70
2019-04-03T04:49:32.386Z,3.80
2019-04-03T04:52:00.811Z,3.80
2019-04-03T04:54:30.580Z,3.80
2019-04-03T04:56:59.194Z,3.80
2019-04-03T04:59:27.574Z,3.80
2019-04-03T05:01:56.182Z,3.80
2019-04-03T05:04:25.312Z,3.70
2019-04-03T05:06:53.998Z,3.60
2019-04-03T05:09:22.387Z,3.70
2019-04-03T05:11:50.804Z,3.70
2019-04-03T05:14:19.239Z,3.70
2019-04-03T05:16:47.782Z,3.80
2019-04-03T05:19:18.836Z,3.90
2019-04-03T05:21:46.087Z,3.90
2019-04-03T05:24:14.468Z,3.90
2019-04-03T05:26:42.827Z,3.80
2019-04-03T05:29:11.215Z,3.70
2019-04-03T05:31:39.774Z,3.80
2019-04-03T05:34:08.158Z,3.80
2019-04-03T05:36:36.516Z,3.80
2019-04-03T05:39:07.110Z,3.80
2019-04-03T05:41:35.480Z,3.90
2019-04-03T05:44:03.834Z,3.70
2019-04-03T05:46:32.285Z,3.60
2019-04-03T05:49:00.575Z,3.40
2019-04-03T05:51:29.740Z,3.40
2019-04-03T05:53:58.624Z,3.40
2019-04-03T05:56:27.060Z,3.50
2019-04-03T05:58:59.016Z,3.50
2019-04-03T06:01:25.653Z,3.50
2019-04-03T06:03:54.232Z,3.50
2019-04-03T06:06:22.596Z,3.80
2019-04-03T06:08:51.914Z,3.70
2019-04-03T06:11:20.829Z,3.80
2019-04-03T06:13:49.557Z,3.90
2019-04-03T06:16:18.001Z,3.90
2019-04-03T06:18:47.650Z,3.80
2019-04-03T06:21:16.530Z,3.90
2019-04-03T06:23:45.044Z,4.00
2019-04-03T06:26:13.372Z,4.10
2019-04-03T06:28:43.061Z,4.10
2019-04-03T06:31:11.746Z,4.20
2019-04-03T06:33:40.114Z,4.30
2019-04-03T06:36:08.556Z,4.40
2019-04-03T06:38:36.859Z,4.30
2019-04-03T06:41:08.034Z,4.20
2019-04-03T06:43:35.242Z,4.40
2019-04-03T06:46:03.777Z,4.30
2019-04-03T06:48:32.166Z,4.30
2019-04-03T06:51:00.543Z,4.20
2019-04-03T06:53:29.138Z,4.30
2019-04-03T06:55:57.554Z,4.30
2019-04-03T06:58:36.713Z,4.40
2019-04-03T07:00:55.906Z,4.50
2019-04-03T07:03:24.259Z,4.30
2019-04-03T07:05:52.639Z,4.40
2019-04-03T07:08:30.668Z,4.50
2019-04-03T07:10:55.086Z,4.30
2019-04-03T07:13:21.442Z,4.40
2019-04-03T07:15:49.771Z,4.10
2019-04-03T07:18:18.153Z,4.20
2019-04-03T07:20:46.511Z,4.30
2019-04-03T07:23:14.923Z,4.60
2019-04-03T07:25:43.242Z,4.50
2019-04-03T07:28:11.873Z,4.50
2019-04-03T07:30:40.183Z,4.80
2019-04-03T07:33:08.602Z,4.90
2019-04-03T07:35:39.240Z,4.90
2019-04-03T07:38:07.023Z,5.00
2019-04-03T07:40:35.482Z,5.20
2019-04-03T07:43:03.926Z,5.10
2019-04-03T07:45:33.000Z,5.20
2019-04-03T07:48:01.876Z,4.80
2019-04-03T07:50:30.226Z,5.10
2019-04-03T07:52:58.659Z,5.50
2019-04-03T07:55:28.528Z,5.50
2019-04-03T07:57:57.724Z,5.60
2019-04-03T08:00:27.240Z,5.40
2019-04-03T08:02:55.746Z,6.00
2019-04-03T08:05:24.097Z,6.30
2019-04-03T08:07:52.475Z,6.30
2019-04-03T08:10:20.868Z,6.40
2019-04-03T08:12:49.346Z,6.50
2019-04-03T08:15:18.172Z,6.10
2019-04-03T08:17:49.198Z,6.40
2019-04-03T08:20:19.378Z,6.30
2019-04-03T08:22:46.592Z,6.20
2019-04-03T08:25:15.190Z,6.70
2019-04-03T08:27:43.801Z,6.10
2019-04-03T08:30:12.183Z,6.20
2019-04-03T08:32:40.538Z,6.50
2019-04-03T08:35:19.829Z,6.50
2019-04-03T08:37:41.936Z,6.60
2019-04-03T08:40:08.955Z,6.60
2019-04-03T08:42:37.379Z,6.30
2019-04-03T08:45:10.353Z,6.20
2019-04-03T08:47:38.817Z,6.60
2019-04-03T08:50:12.935Z,7.10
2019-04-03T08:52:41.214Z,6.80
2019-04-03T08:55:12.891Z,6.60
2019-04-03T08:57:40.459Z,6.80
2019-04-03T09:00:09.492Z,7.10
2019-04-03T09:02:37.954Z,6.90
2019-04-03T09:05:07.083Z,6.90
2019-04-03T09:07:35.458Z,7.40
2019-04-03T09:10:07.852Z,7.70
2019-04-03T09:12:38.413Z,7.30
2019-04-03T09:15:07.469Z,7.00
2019-04-03T09:17:35.859Z,7.20
2019-04-03T09:20:04.890Z,7.10
2019-04-03T09:22:33.271Z,6.80
2019-04-03T09:25:01.630Z,7.10
2019-04-03T09:27:29.986Z,7.70
2019-04-03T09:29:58.378Z,7.70
2019-04-03T09:32:26.827Z,8.10
2019-04-03T09:34:55.214Z,8.00
2019-04-03T09:37:23.572Z,8.00
2019-04-03T09:39:51.957Z,7.80
2019-04-03T09:42:21.224Z,7.70
2019-04-03T09:44:50.099Z,7.80
2019-04-03T09:47:18.470Z,7.90
2019-04-03T09:49:46.846Z,7.60
2019-04-03T09:52:15.214Z,7.50
2019-04-03T09:54:43.592Z,7.60
2019-04-03T09:57:12.022Z,8.00
2019-04-03T09:59:40.616Z,7.90
2019-04-03T10:02:09.257Z,7.90
2019-04-03T10:04:37.647Z,7.90
2019-04-03T10:07:06.129Z,8.10
2019-04-03T10:09:34.485Z,7.80
2019-04-03T10:12:02.841Z,7.70
2019-04-03T10:14:31.239Z,7.80
2019-04-03T10:16:59.829Z,7.90
2019-04-03T10:19:28.152Z,7.40
2019-04-03T10:21:56.531Z,7.60
2019-04-03T10:24:24.819Z,7.40
2019-04-03T10:26:53.198Z,7.30
2019-04-03T10:29:21.901Z,7.40
2019-04-03T10:31:50.661Z,7.40
2019-04-03T10:34:19.296Z,7.20
2019-04-03T10:36:47.697Z,7.20
2019-04-03T10:39:16.070Z,7.50
2019-04-03T10:41:44.443Z,7.90
2019-04-03T10:44:12.795Z,8.20
2019-04-03T10:46:41.187Z,8.20
2019-04-03T10:49:09.539Z,8.40
2019-04-03T10:51:40.890Z,8.50
2019-04-03T10:54:07.942Z,8.80
2019-04-03T10:56:36.329Z,8.70
2019-04-03T10:59:11.817Z,8.70
2019-04-03T11:01:34.713Z,8.80
2019-04-03T11:04:03.068Z,8.50
2019-04-03T11:06:31.457Z,7.90
2019-04-03T11:08:59.978Z,7.60
2019-04-03T11:11:29.651Z,8.00
2019-04-03T11:13:58.706Z,7.70
2019-04-03T11:16:27.445Z,7.50
2019-04-03T11:19:00.023Z,7.40
2019-04-03T11:21:25.835Z,7.10
2019-04-03T11:23:54.191Z,7.20
2019-04-03T11:26:24.864Z,7.30
2019-04-03T11:28:52.596Z,7.60
2019-04-03T11:31:27.441Z,7.40
2019-04-03T11:33:51.538Z,7.30
2019-04-03T11:36:19.911Z,7.80
2019-04-03T11:38:48.271Z,7.90
2019-04-03T11:41:19.578Z,8.00
2019-04-03T11:43:46.675Z,8.10
2019-04-03T11:46:15.281Z,8.70
2019-04-03T11:48:43.936Z,8.90
2019-04-03T11:51:12.301Z,8.80
2019-04-03T11:53:40.680Z,8.80
2019-04-03T11:56:09.060Z,8.90
2019-04-03T11:58:37.706Z,8.80
2019-04-03T12:01:07.689Z,8.40
2019-04-03T12:03:36.385Z,8.80
2019-04-03T12:06:04.717Z,9.00
2019-04-03T12:08:33.103Z,9.00
2019-04-03T12:11:01.553Z,9.10
2019-04-03T12:13:30.252Z,9.10
2019-04-03T12:15:58.890Z,8.70
2019-04-03T12:18:27.359Z,8.50
2019-04-03T12:20:55.652Z,8.90
2019-04-03T12:23:24.425Z,8.70
2019-04-03T12:25:54.039Z,8.60
2019-04-03T12:28:22.421Z,8.70
2019-04-03T12:30:50.791Z,9.10
2019-04-03T12:33:21.211Z,9.00
2019-04-03T12:35:49.479Z,9.10
2019-04-03T12:38:18.233Z,9.00
2019-04-03T12:40:46.977Z,8.80
2019-04-03T12:43:15.428Z,9.00
2019-04-03T12:45:43.760Z,9.50
2019-04-03T12:48:12.140Z,9.30
2019-04-03T12:50:40.671Z,9.70
2019-04-03T12:53:09.271Z,9.50
2019-04-03T12:55:37.626Z,9.50
2019-04-03T12:58:06.297Z,9.30
2019-04-03T13:00:34.764Z,9.20
2019-04-03T13:03:03.449Z,9.00
2019-04-03T13:05:32.198Z,8.90
2019-04-03T13:08:00.857Z,8.70
2019-04-03T13:10:40.066Z,8.60
2019-04-03T13:12:59.287Z,8.50
2019-04-03T13:15:27.642Z,8.30
2019-04-03T13:17:56.024Z,8.50
2019-04-03T13:20:24.616Z,8.70
2019-04-03T13:22:52.973Z,8.60
2019-04-03T13:25:22.151Z,8.50
2019-04-03T13:27:50.615Z,8.20
2019-04-03T13:30:18.970Z,8.40
2019-04-03T13:32:57.414Z,8.50
2019-04-03T13:35:17.366Z,8.70
2019-04-03T13:37:45.755Z,8.80
2019-04-03T13:40:14.569Z,8.60
2019-04-03T13:42:42.910Z,8.60
2019-04-03T13:45:11.387Z,8.40
2019-04-03T13:47:41.490Z,8.10
2019-04-03T13:50:09.747Z,8.10
2019-04-03T13:52:42.459Z,8.10
2019-04-03T13:55:08.689Z,8.10
2019-04-03T13:57:37.067Z,7.70
2019-04-03T14:00:18.199Z,7.70
2019-04-03T14:02:37.435Z,7.30
2019-04-03T14:05:07.557Z,7.30
2019-04-03T14:07:36.211Z,7.20
2019-04-03T14:10:07.723Z,7.10
2019-04-03T14:12:38.271Z,6.80
2019-04-03T14:15:07.494Z,6.90
2019-04-03T14:17:36.282Z,7.20
2019-04-03T14:20:07.503Z,7.10
2019-04-03T14:22:36.067Z,7.10
2019-04-03T14:25:17.979Z,7.20
2019-04-03T14:27:37.367Z,7.40
2019-04-03T14:30:10.249Z,7.10
2019-04-03T14:32:37.893Z,7.20
2019-04-03T14:35:38.247Z,7.50
2019-04-03T14:37:36.429Z,7.80
2019-04-03T14:40:06.658Z,7.50
2019-04-03T14:42:35.318Z,7.50
2019-04-03T14:45:05.923Z,7.20
2019-04-03T14:47:34.287Z,7.10
2019-04-03T14:50:05.057Z,7.00
2019-04-03T14:52:32.933Z,7.10
2019-04-03T14:55:15.357Z,6.90
2019-04-03T14:57:31.397Z,7.10
2019-04-03T15:00:00.393Z,7.20
2019-04-03T15:02:30.058Z,7.10
2019-04-03T15:04:58.666Z,7.00
2019-04-03T15:07:27.661Z,7.00
2019-04-03T15:09:57.222Z,6.90
2019-04-03T15:12:26.016Z,6.70
2019-04-03T15:14:55.349Z,6.60
2019-04-03T15:17:23.949Z,6.60
2019-04-03T15:19:52.326Z,6.60
2019-04-03T15:22:20.682Z,6.70
2019-04-03T15:24:49.375Z,6.50
2019-04-03T15:27:18.054Z,6.60
2019-04-03T15:29:46.406Z,6.60
2019-04-03T15:32:16.106Z,6.70
2019-04-03T15:34:45.010Z,6.90
2019-04-03T15:37:14.181Z,6.70
2019-04-03T15:39:43.596Z,6.60
2019-04-03T15:42:12.016Z,6.60
2019-04-03T15:44:40.379Z,6.30
2019-04-03T15:47:09.896Z,6.40
2019-04-03T15:49:38.778Z,6.20
2019-04-03T15:52:07.201Z,6.30
2019-04-03T15:54:35.474Z,6.20
2019-04-03T15:57:04.292Z,6.50
2019-04-03T15:59:32.996Z,6.50
2019-04-03T16:02:01.873Z,6.30
2019-04-03T16:04:30.259Z,6.20
2019-04-03T16:07:01.103Z,6.20
2019-04-03T16:09:28.873Z,6.30
2019-04-03T16:12:00.171Z,6.30
2019-04-03T16:14:28.533Z,6.60
2019-04-03T16:17:00.632Z,6.40
2019-04-03T16:19:27.418Z,6.10
2019-04-03T16:21:57.687Z,6.40
2019-04-03T16:24:25.822Z,6.90
2019-04-03T16:26:56.194Z,6.50
2019-04-03T16:29:24.615Z,6.00
2019-04-03T16:31:54.586Z,6.20
2019-04-03T16:34:23.066Z,6.30
2019-04-03T16:36:51.519Z,6.40
2019-04-03T16:39:20.382Z,6.20
2019-04-03T16:41:49.112Z,5.80
2019-04-03T16:44:17.989Z,6.00
2019-04-03T16:46:46.855Z,6.10
2019-04-03T16:49:15.809Z,6.00
2019-04-03T16:51:44.874Z,5.80
2019-04-03T16:54:13.170Z,5.50
2019-04-03T16:56:41.689Z,5.60
2019-04-03T16:59:10.441Z,5.60
2019-04-03T17:01:38.791Z,5.30
2019-04-03T17:04:09.282Z,5.50
2019-04-03T17:06:39.492Z,5.80
2019-04-03T17:09:08.320Z,5.90
2019-04-03T17:11:37.018Z,5.40
2019-04-03T17:14:05.909Z,5.20
2019-04-03T17:16:35.626Z,5.90
2019-04-03T17:19:04.307Z,5.80
2019-04-03T17:21:36.344Z,4.70
2019-04-03T17:24:02.755Z,4.70
2019-04-03T17:26:31.050Z,4.90
2019-04-03T17:29:03.994Z,5.10
2019-04-03T17:31:29.516Z,5.10
2019-04-03T17:33:57.912Z,4.60
2019-04-03T17:36:26.783Z,4.40
2019-04-03T17:38:55.157Z,4.80
2019-04-03T17:41:23.682Z,4.10
2019-04-03T17:43:52.063Z,4.20
2019-04-03T17:46:21.523Z,4.30
2019-04-03T17:48:49.916Z,4.30
2019-04-03T17:51:18.270Z,4.50
2019-04-03T17:53:46.658Z,4.30
2019-04-03T17:56:15.013Z,3.90
2019-04-03T17:58:43.386Z,3.70
2019-04-03T18:01:11.674Z,3.80
2019-04-03T18:03:40.056Z,3.80
2019-04-03T18:06:08.415Z,3.80
2019-04-03T18:08:36.799Z,3.40
2019-04-03T18:11:05.382Z,4.10
2019-04-03T18:13:33.801Z,3.90
2019-04-03T18:16:02.159Z,3.70
2019-04-03T18:18:33.225Z,3.60
2019-04-03T18:21:00.541Z,3.70
2019-04-03T18:23:28.924Z,3.70
2019-04-03T18:25:57.792Z,3.80
2019-04-03T18:28:27.754Z,3.60
2019-04-03T18:30:56.847Z,3.60
2019-04-03T18:33:25.226Z,3.60
2019-04-03T18:35:56.520Z,3.50
2019-04-03T18:38:23.555Z,3.50
2019-04-03T18:40:51.924Z,3.50
2019-04-03T18:43:21.885Z,3.50
2019-04-03T18:45:50.302Z,3.60
2019-04-03T18:48:18.726Z,3.40
2019-04-03T18:50:47.087Z,3.40
2019-04-03T18:53:15.459Z,3.60
2019-04-03T18:55:45.421Z,3.70
2019-04-03T18:58:13.889Z,3.50
2019-04-03T19:00:42.271Z,3.50
2019-04-03T19:03:10.631Z,3.50
2019-04-03T19:05:39.012Z,3.60
2019-04-03T19:08:13.099Z,3.70
2019-04-03T19:10:37.401Z,3.60
2019-04-03T19:13:05.773Z,3.60
2019-04-03T19:15:34.192Z,3.60
2019-04-03T19:18:06.040Z,3.50
2019-04-03T19:20:32.522Z,3.30
2019-04-03T19:23:02.796Z,3.50
2019-04-03T19:25:30.909Z,3.50
2019-04-03T19:27:59.275Z,3.50
2019-04-03T19:30:28.655Z,3.60
2019-04-03T19:32:57.123Z,3.60
2019-04-03T19:35:28.452Z,3.70
2019-04-03T19:37:55.970Z,3.70
2019-04-03T19:40:24.378Z,3.70
2019-04-03T19:42:52.735Z,3.60
2019-04-03T19:45:21.568Z,3.60
2019-04-03T19:47:49.869Z,3.70
2019-04-03T19:50:18.250Z,3.70
2019-04-03T19:52:46.605Z,3.80
2019-04-03T19:55:14.988Z,3.80
2019-04-03T19:57:43.818Z,3.70
2019-04-03T20:00:12.470Z,3.70
2019-04-03T20:02:43.125Z,3.80
2019-04-03T20:05:10.847Z,3.80
2019-04-03T20:07:39.204Z,3.80
2019-04-03T20:10:09.137Z,3.80
2019-04-03T20:12:37.692Z,3.80
2019-04-03T20:15:07.287Z,3.80
2019-04-03T20:17:35.652Z,3.80
2019-04-03T20:20:05.671Z,3.70
2019-04-03T20:22:34.197Z,3.80
2019-04-03T20:25:04.908Z,3.80
2019-04-03T20:27:33.367Z,3.80
2019-04-03T20:30:01.814Z,3.90
2019-04-03T20:32:30.198Z,3.80
2019-04-03T20:34:58.555Z,3.80
2019-04-03T20:37:27.030Z,4.00
2019-04-03T20:39:55.416Z,4.40
2019-04-03T20:42:23.753Z,4.10
2019-04-03T20:44:52.110Z,4.10
2019-04-03T20:47:20.489Z,4.00
2019-04-03T20:49:48.985Z,3.90
2019-04-03T20:52:17.370Z,3.80
2019-04-03T20:54:45.724Z,4.00
2019-04-03T20:57:14.428Z,4.00
2019-04-03T20:59:43.020Z,3.80
2019-04-03T21:02:12.912Z,4.60
2019-04-03T21:04:41.315Z,4.60
2019-04-03T21:07:10.048Z,4.50
2019-04-03T21:09:38.408Z,4.20
2019-04-03T21:12:06.787Z,3.80
2019-04-03T21:14:35.146Z,3.60
2019-04-03T21:17:03.531Z,3.60
2019-04-03T21:19:31.885Z,3.90
2019-04-03T21:22:00.394Z,3.90
2019-04-03T21:24:28.732Z,4.20
2019-04-03T21:26:57.117Z,3.80
2019-04-03T21:29:25.475Z,3.50
2019-04-03T21:31:56.412Z,3.30
2019-04-03T21:34:23.856Z,3.20
2019-04-03T21:36:52.241Z,3.10
2019-04-03T21:39:20.603Z,3.30
2019-04-03T21:41:48.986Z,3.20
2019-04-03T21:44:17.335Z,3.10
2019-04-03T21:46:45.714Z,3.00
2019-04-03T21:49:16.456Z,3.00
2019-04-03T21:51:44.099Z,3.00
2019-04-03T21:54:12.455Z,3.80
2019-04-03T21:56:40.855Z,3.50
2019-04-03T21:59:10.933Z,3.70
2019-04-03T22:01:39.222Z,3.60
2019-04-03T22:04:07.838Z,3.20
2019-04-03T22:06:36.256Z,3.10
2019-04-03T22:09:07.839Z,2.90
2019-04-03T22:11:36.195Z,3.10
2019-04-03T22:14:04.646Z,3.30
2019-04-03T22:16:33.003Z,3.40
2019-04-03T22:19:01.386Z,3.30
2019-04-03T22:21:32.194Z,3.40
2019-04-03T22:23:59.843Z,3.30
2019-04-03T22:26:28.202Z,3.40
2019-04-03T22:28:56.590Z,3.50
2019-04-03T22:31:24.946Z,3.40
2019-04-03T22:33:53.330Z,3.50
2019-04-03T22:36:21.682Z,3.40
2019-04-03T22:38:50.079Z,3.50
2019-04-03T22:41:18.431Z,3.50
2019-04-03T22:43:46.888Z,3.40
2019-04-03T22:46:15.248Z,3.40
2019-04-03T22:48:43.630Z,3.40
2019-04-03T22:51:11.999Z,3.50
2019-04-03T22:53:41.669Z,3.50
2019-04-03T22:56:10.547Z,3.50
2019-04-03T22:58:38.931Z,3.40
2019-04-03T23:01:07.287Z,3.40
2019-04-03T23:03:35.686Z,3.40
2019-04-03T23:06:04.024Z,3.40
2019-04-03T23:08:32.410Z,3.30
2019-04-03T23:11:01.454Z,3.20
2019-04-03T23:13:29.857Z,3.20
2019-04-03T23:15:58.224Z,3.10
2019-04-03T23:18:26.602Z,3.00
2019-04-03T23:20:54.962Z,3.00
2019-04-03T23:23:26.927Z,3.10
2019-04-03T23:25:53.354Z,3.10
2019-04-03T23:28:21.718Z,3.20
2019-04-03T23:30:50.094Z,3.30
2019-04-03T23:33:18.464Z,3.30
2019-04-03T23:35:46.862Z,4.00
2019-04-03T23:38:15.222Z,3.50
2019-04-03T23:40:43.615Z,3.40
2019-04-03T23:43:11.972Z,3.60
2019-04-03T23:45:40.353Z,3.60
2019-04-03T23:48:08.711Z,3.70
2019-04-03T23:50:37.091Z,4.40
2019-04-03T23:53:05.447Z,4.50
2019-04-03T23:55:34.374Z,4.20
2019-04-03T23:58:03.840Z,4.00
